createdAt,value
2023-01-07T00:02:59.952Z,64.70
2023-01-07T00:06:07.514Z,64.50
2023-01-07T00:09:12.608Z,64.40
2023-01-07T00:12:14.185Z,64.60
2023-01-07T00:18:17.697Z,63.30
2023-01-07T00:21:20.934Z,56.80
2023-01-07T00:24:22.579Z,58.00
2023-01-07T00:27:24.329Z,57.60
2023-01-07T00:33:27.480Z,55.80
2023-01-07T00:39:34.947Z,53.60
2023-01-07T00:45:38.250Z,54.30
2023-01-07T00:48:39.823Z,50.10
2023-01-07T00:51:41.530Z,52.30
2023-01-07T00:54:43.392Z,48.10
2023-01-07T00:57:45.255Z,55.10
2023-01-07T01:00:47.088Z,50.50
2023-01-07T01:03:48.748Z,52.90
2023-01-07T01:06:50.374Z,48.20
2023-01-07T01:09:52.113Z,50.40
2023-01-07T01:18:57.154Z,49.40
2023-01-07T01:21:59.192Z,52.90
2023-01-07T01:28:02.680Z,54.30
2023-01-07T01:31:04.687Z,54.30
2023-01-07T01:34:06.380Z,50.50
2023-01-07T01:37:08.104Z,49.90
2023-01-07T01:40:10.712Z,50.10
2023-01-07T01:43:35.749Z,49.90
2023-01-07T01:46:42.198Z,49.70
2023-01-07T01:49:50.207Z,51.20
2023-01-07T01:53:01.808Z,48.00
2023-01-07T01:56:09.435Z,50.90
2023-01-07T01:59:14.643Z,51.10
2023-01-07T02:02:21.369Z,49.20
2023-01-07T02:05:26.248Z,50.00
2023-01-07T02:08:28.295Z,48.60
2023-01-07T02:11:33.795Z,52.10
2023-01-07T02:14:47.611Z,48.50
2023-01-07T02:18:08.905Z,51.50
2023-01-07T02:21:32.520Z,49.60
2023-01-07T02:24:49.329Z,51.70
2023-01-07T02:28:26.431Z,50.70
2023-01-07T02:32:05.829Z,53.80
2023-01-07T02:35:07.436Z,56.10
2023-01-07T02:41:31.900Z,49.90
2023-01-07T02:44:48.761Z,54.30
2023-01-07T02:47:54.574Z,47.60
2023-01-07T02:50:56.075Z,48.50
2023-01-07T02:53:57.583Z,54.10
2023-01-07T02:57:24.472Z,51.90
2023-01-07T03:00:49.425Z,48.90
2023-01-07T03:04:10.018Z,53.10
2023-01-07T03:07:24.863Z,49.90
2023-01-07T03:10:59.941Z,48.50
2023-01-07T03:14:13.809Z,46.80
2023-01-07T03:17:19.841Z,48.90
2023-01-07T03:20:24.643Z,51.00
2023-01-07T03:23:27.940Z,49.60
2023-01-07T03:26:36.513Z,48.60
2023-01-07T03:29:38.161Z,49.50
2023-01-07T03:35:46.019Z,54.80
2023-01-07T03:38:48.516Z,57.80
2023-01-07T03:41:50.913Z,52.90
2023-01-07T03:44:52.586Z,52.60
2023-01-07T03:47:56.008Z,50.20
2023-01-07T03:50:57.662Z,51.90
2023-01-07T03:57:00.692Z,53.20
2023-01-07T04:03:04.052Z,53.50
2023-01-07T04:09:07.265Z,53.20
2023-01-07T04:15:11.083Z,50.40
2023-01-07T04:18:12.731Z,53.10
2023-01-07T04:24:15.864Z,51.30
2023-01-07T04:27:17.626Z,48.10
2023-01-07T04:33:20.923Z,55.70
2023-01-07T04:36:22.705Z,65.40
2023-01-07T04:42:25.791Z,64.30
2023-01-07T04:45:27.545Z,64.50
2023-01-07T04:51:31.150Z,65.00
2023-01-07T04:57:34.496Z,72.00
2023-01-07T05:03:38.017Z,54.60
2023-01-07T05:06:39.555Z,54.00
2023-01-07T05:09:41.181Z,47.50
2023-01-07T05:15:44.863Z,55.40
2023-01-07T05:18:46.467Z,52.80
2023-01-07T05:24:49.695Z,55.70
2023-01-07T05:30:53.090Z,59.40
2023-01-07T05:36:56.660Z,63.40
2023-01-07T05:39:58.277Z,124.10
2023-01-07T05:43:00.047Z,111.10
2023-01-07T05:49:03.596Z,76.80
2023-01-07T05:52:05.241Z,83.00
2023-01-07T05:58:08.754Z,404.90
2023-01-07T06:04:12.021Z,350.80
2023-01-07T06:07:13.661Z,425.40
2023-01-07T06:13:16.811Z,322.80
2023-01-07T06:16:18.471Z,382.40
2023-01-07T06:19:20.136Z,321.00
2023-01-07T06:25:23.133Z,236.70
2023-01-07T06:28:24.796Z,213.50
2023-01-07T06:31:26.569Z,417.50
2023-01-07T06:37:29.874Z,380.40
2023-01-07T06:40:31.787Z,283.50
2023-01-07T06:43:33.377Z,377.90
2023-01-07T06:49:36.736Z,329.50
2023-01-07T06:52:38.383Z,296.40
2023-01-07T06:55:40.004Z,170.90
2023-01-07T06:58:41.653Z,149.30
2023-01-07T07:01:46.212Z,138.80
2023-01-07T07:04:48.409Z,242.60
2023-01-07T07:07:50.020Z,340.90
2023-01-07T07:10:51.683Z,212.90
2023-01-07T07:13:53.268Z,110.60
2023-01-07T07:16:54.801Z,105.00
2023-01-07T07:19:56.352Z,101.10
2023-01-07T07:22:57.878Z,94.10
2023-01-07T07:25:59.480Z,70.50
2023-01-07T07:29:01.100Z,67.70
2023-01-07T07:32:02.696Z,73.70
2023-01-07T07:35:04.716Z,56.20
2023-01-07T07:38:06.366Z,59.80
2023-01-07T07:44:09.443Z,57.30
2023-01-07T07:47:13.449Z,58.80
2023-01-07T07:50:15.076Z,64.50
2023-01-07T07:56:18.281Z,61.10
2023-01-07T08:02:21.611Z,69.10
2023-01-07T08:05:23.606Z,62.80
2023-01-07T08:08:25.366Z,61.40
2023-01-07T08:14:28.456Z,55.80
2023-01-07T08:17:30.061Z,58.50
2023-01-07T08:23:33.373Z,54.00
2023-01-07T08:29:36.736Z,68.70
2023-01-07T08:35:40.267Z,72.80
2023-01-07T08:38:41.981Z,69.00
2023-01-07T08:44:45.057Z,81.70
2023-01-07T08:47:46.815Z,75.40
2023-01-07T08:53:54.787Z,66.10
2023-01-07T08:56:57.074Z,64.20
2023-01-07T09:03:00.205Z,65.50
2023-01-07T09:09:03.570Z,62.40
2023-01-07T09:15:08.586Z,66.60
2023-01-07T09:18:10.291Z,61.30
2023-01-07T09:21:11.939Z,55.90
2023-01-07T09:24:22.181Z,55.50
2023-01-07T09:27:23.801Z,47.60
2023-01-07T09:30:26.021Z,52.00
2023-01-07T09:33:27.670Z,46.60
2023-01-07T09:36:29.391Z,46.70
2023-01-07T09:39:31.020Z,43.80
2023-01-07T09:43:05.046Z,43.60
2023-01-07T09:46:08.040Z,46.80
2023-01-07T09:49:15.280Z,45.70
2023-01-07T09:52:24.179Z,46.60
2023-01-07T09:55:36.195Z,43.60
2023-01-07T09:58:38.133Z,43.30
2023-01-07T10:01:51.969Z,44.20
2023-01-07T10:05:30.082Z,45.30
2023-01-07T10:08:42.801Z,48.80
2023-01-07T10:11:50.600Z,44.90
2023-01-07T10:15:21.389Z,46.00
2023-01-07T10:18:44.716Z,48.10
2023-01-07T10:21:57.725Z,45.90
2023-01-07T10:25:04.361Z,48.00
2023-01-07T10:28:11.922Z,47.00
2023-01-07T10:31:19.792Z,47.60
2023-01-07T10:34:36.149Z,47.50
2023-01-07T10:37:39.656Z,49.40
2023-01-07T10:40:51.888Z,61.80
2023-01-07T10:44:20.052Z,47.40
2023-01-07T10:47:34.080Z,49.00
2023-01-07T10:51:01.754Z,51.20
2023-01-07T10:54:22.833Z,51.30
2023-01-07T10:57:26.212Z,50.50
2023-01-07T11:00:28.059Z,52.80
2023-01-07T11:03:29.609Z,61.40
2023-01-07T11:06:48.941Z,51.70
2023-01-07T11:09:50.950Z,64.20
2023-01-07T11:12:56.667Z,68.60
2023-01-07T11:16:21.411Z,57.10
2023-01-07T11:19:41.821Z,48.10
2023-01-07T11:22:44.778Z,51.20
2023-01-07T11:25:47.405Z,51.00
2023-01-07T11:29:00.622Z,52.80
2023-01-07T11:32:02.253Z,58.50
2023-01-07T11:35:22.915Z,50.40
2023-01-07T11:38:33.445Z,46.10
2023-01-07T11:41:35.196Z,44.50
2023-01-07T11:44:36.861Z,44.80
2023-01-07T11:47:40.295Z,42.40
2023-01-07T11:50:43.970Z,45.40
2023-01-07T11:53:59.041Z,42.60
2023-01-07T11:57:17.701Z,45.30
2023-01-07T12:00:20.885Z,45.80
2023-01-07T12:03:22.560Z,47.10
2023-01-07T12:06:27.564Z,44.40
2023-01-07T12:09:34.687Z,45.50
2023-01-07T12:12:37.220Z,48.00
2023-01-07T12:15:52.189Z,44.40
2023-01-07T12:19:09.352Z,44.90
2023-01-07T12:22:41.279Z,52.60
2023-01-07T12:25:58.823Z,137.20
2023-01-07T12:29:16.929Z,63.60
2023-01-07T12:32:41.273Z,57.70
2023-01-07T12:35:44.448Z,49.30
2023-01-07T12:38:50.191Z,42.30
2023-01-07T12:42:13.135Z,37.30
2023-01-07T12:45:25.688Z,32.60
2023-01-07T12:48:53.290Z,43.00
2023-01-07T12:52:05.069Z,42.80
2023-01-07T12:55:44.737Z,42.90
2023-01-07T12:58:49.393Z,47.90
2023-01-07T13:01:57.713Z,47.50
2023-01-07T13:05:11.394Z,49.40
2023-01-07T13:08:37.946Z,56.70
2023-01-07T13:11:46.418Z,56.40
2023-01-07T13:14:51.959Z,58.80
2023-01-07T13:18:02.528Z,54.70
2023-01-07T13:21:08.077Z,53.70
2023-01-07T13:24:56.559Z,57.50
2023-01-07T13:28:10.821Z,51.70
2023-01-07T13:31:46.539Z,52.50
2023-01-07T13:35:03.409Z,51.80
2023-01-07T13:38:12.109Z,55.90
2023-01-07T13:41:45.678Z,51.90
2023-01-07T13:45:21.669Z,42.60
2023-01-07T13:48:26.341Z,46.20
2023-01-07T13:51:30.933Z,50.60
2023-01-07T13:54:53.504Z,39.10
2023-01-07T13:57:55.184Z,44.50
2023-01-07T14:04:04.830Z,96.20
2023-01-07T14:07:07.605Z,74.20
2023-01-07T14:10:29.944Z,48.10
2023-01-07T14:13:52.863Z,46.20
2023-01-07T14:17:13.392Z,40.10
2023-01-07T14:20:46.091Z,38.70
2023-01-07T14:24:16.716Z,39.80
2023-01-07T14:27:29.097Z,41.70
2023-01-07T14:30:45.784Z,43.90
2023-01-07T14:33:50.702Z,43.60
2023-01-07T14:37:01.536Z,44.00
2023-01-07T14:40:25.981Z,56.80
2023-01-07T14:43:42.974Z,46.40
2023-01-07T14:46:46.431Z,50.00
2023-01-07T14:49:51.002Z,52.70
2023-01-07T14:53:16.453Z,49.30
2023-01-07T14:56:23.745Z,52.50
2023-01-07T14:59:53.497Z,50.40
2023-01-07T15:03:31.084Z,73.10
2023-01-07T15:06:38.954Z,75.70
2023-01-07T15:09:52.338Z,66.20
2023-01-07T15:12:55.697Z,58.60
2023-01-07T15:15:57.478Z,61.30
2023-01-07T15:18:59.157Z,46.70
2023-01-07T15:25:46.520Z,47.30
2023-01-07T15:28:51.325Z,52.80
2023-01-07T15:32:08.421Z,516.30
2023-01-07T15:35:40.168Z,346.30
2023-01-07T15:38:50.763Z,171.50
2023-01-07T15:41:54.373Z,164.40
2023-01-07T15:44:57.468Z,107.90
2023-01-07T15:48:07.909Z,143.00
2023-01-07T15:51:15.667Z,151.10
2023-01-07T15:54:35.012Z,117.80
2023-01-07T15:57:36.580Z,121.20
2023-01-07T16:03:41.970Z,144.20
2023-01-07T16:06:43.677Z,142.60
2023-01-07T16:12:52.372Z,124.80
2023-01-07T16:15:59.294Z,103.60
2023-01-07T16:19:02.593Z,233.80
2023-01-07T16:22:04.244Z,141.70
2023-01-07T16:28:16.239Z,226.60
2023-01-07T16:31:21.568Z,278.50
2023-01-07T16:34:26.322Z,183.40
2023-01-07T16:37:28.614Z,162.60
2023-01-07T16:40:34.557Z,137.30
2023-01-07T16:43:38.997Z,91.70
2023-01-07T16:46:40.562Z,85.20
2023-01-07T16:49:42.240Z,104.20
2023-01-07T16:52:55.315Z,74.70
2023-01-07T16:56:15.403Z,83.30
2023-01-07T16:59:17.263Z,67.40
2023-01-07T17:02:28.241Z,89.10
2023-01-07T17:05:31.141Z,120.80
2023-01-07T17:08:33.959Z,148.50
2023-01-07T17:11:38.542Z,222.80
2023-01-07T17:14:49.997Z,186.00
2023-01-07T17:17:51.617Z,166.80
2023-01-07T17:23:56.266Z,104.80
2023-01-07T17:30:04.914Z,107.90
2023-01-07T17:33:06.596Z,99.80
2023-01-07T17:39:28.352Z,88.30
2023-01-07T17:42:32.993Z,92.60
2023-01-07T17:45:35.264Z,96.60
2023-01-07T17:48:37.060Z,88.70
2023-01-07T17:51:41.031Z,93.70
2023-01-07T17:54:44.210Z,97.60
2023-01-07T17:57:45.972Z,92.60
2023-01-07T18:03:50.423Z,100.90
2023-01-07T18:06:52.005Z,131.80
2023-01-07T18:09:53.600Z,138.00
2023-01-07T18:12:55.151Z,132.10
2023-01-07T18:15:57.701Z,134.70
2023-01-07T18:18:59.268Z,130.20
2023-01-07T18:22:00.854Z,122.70
2023-01-07T18:25:02.467Z,135.20
2023-01-07T18:28:04.224Z,105.00
2023-01-07T18:34:08.766Z,105.80
2023-01-07T18:37:10.428Z,103.30
2023-01-07T18:43:14.968Z,172.90
2023-01-07T18:46:17.801Z,148.20
2023-01-07T18:49:19.507Z,166.70
2023-01-07T18:52:21.103Z,136.30
2023-01-07T18:55:22.708Z,131.20
2023-01-07T18:58:24.524Z,143.60
2023-01-07T19:04:28.051Z,260.90
2023-01-07T19:10:31.688Z,139.20
2023-01-07T19:16:35.945Z,212.80
2023-01-07T19:19:48.029Z,264.10
2023-01-07T19:22:50.127Z,284.40
2023-01-07T19:26:03.220Z,291.70
2023-01-07T19:29:04.961Z,151.00
2023-01-07T19:35:08.708Z,110.30
2023-01-07T19:38:10.953Z,108.30
2023-01-07T19:41:14.881Z,132.30
2023-01-07T19:44:16.761Z,125.30
2023-01-07T19:47:18.486Z,107.90
2023-01-07T19:50:20.023Z,119.90
2023-01-07T19:53:21.638Z,115.50
2023-01-07T19:56:23.210Z,177.90
2023-01-07T19:59:25.808Z,187.70
2023-01-07T20:02:27.573Z,156.00
2023-01-07T20:05:29.292Z,173.80
2023-01-07T20:08:31.254Z,174.80
2023-01-07T20:11:32.816Z,204.90
2023-01-07T20:14:34.497Z,297.10
2023-01-07T20:17:36.105Z,304.00
2023-01-07T20:20:37.713Z,275.20
2023-01-07T20:23:40.669Z,156.80
2023-01-07T20:26:42.212Z,208.40
2023-01-07T20:29:44.018Z,214.90
2023-01-07T20:35:47.123Z,174.00
2023-01-07T20:38:48.771Z,144.30
2023-01-07T20:41:50.370Z,205.80
2023-01-07T20:44:51.928Z,331.70
2023-01-07T20:47:53.528Z,240.80
2023-01-07T20:50:55.293Z,280.20
2023-01-07T20:53:57.815Z,211.90
2023-01-07T20:56:59.349Z,262.30
2023-01-07T21:00:01.000Z,197.10
2023-01-07T21:09:06.656Z,203.20
2023-01-07T21:15:11.549Z,163.90
2023-01-07T21:18:13.286Z,168.70
2023-01-07T21:24:21.052Z,155.40
2023-01-07T21:30:24.070Z,169.90
2023-01-07T21:33:25.599Z,142.40
2023-01-07T21:36:28.240Z,219.40
2023-01-07T21:39:29.849Z,137.80
2023-01-07T21:42:31.488Z,139.30
2023-01-07T21:45:33.069Z,141.00
2023-01-07T21:48:36.780Z,132.60
2023-01-07T21:51:42.656Z,161.60
2023-01-07T21:54:44.314Z,140.40
2023-01-07T21:57:46.087Z,122.70
2023-01-07T22:00:53.934Z,134.50
2023-01-07T22:03:56.899Z,152.40
2023-01-07T22:06:58.605Z,136.40
2023-01-07T22:10:00.184Z,141.00
2023-01-07T22:13:01.772Z,124.50
2023-01-07T22:16:04.844Z,123.30
2023-01-07T22:19:06.463Z,141.90
2023-01-07T22:22:08.146Z,131.30
2023-01-07T22:25:09.859Z,117.50
2023-01-07T22:31:24.207Z,121.90
2023-01-07T22:34:26.318Z,108.60
2023-01-07T22:37:27.889Z,109.40
2023-01-07T22:40:30.478Z,110.50
2023-01-07T22:43:32.347Z,129.60
2023-01-07T22:46:34.140Z,144.10
2023-01-07T22:52:38.263Z,191.40
2023-01-07T22:55:40.397Z,134.30
2023-01-07T22:58:42.018Z,142.20
2023-01-07T23:01:43.695Z,116.40
2023-01-07T23:04:45.272Z,124.90
2023-01-07T23:07:46.879Z,119.00
2023-01-07T23:10:48.803Z,130.90
2023-01-07T23:13:50.449Z,151.10
2023-01-07T23:16:52.539Z,145.90
2023-01-07T23:19:54.216Z,127.00
2023-01-07T23:22:55.877Z,118.10
2023-01-07T23:25:57.442Z,131.70
2023-01-07T23:28:59.247Z,91.00
2023-01-07T23:32:01.036Z,84.40
2023-01-07T23:38:04.336Z,83.60
2023-01-07T23:44:08.640Z,105.60
2023-01-07T23:47:10.193Z,90.70
2023-01-07T23:50:12.564Z,85.80
2023-01-07T23:53:14.124Z,98.80
2023-01-07T23:56:18.996Z,93.10
2023-01-07T23:59:20.621Z,85.20
